sensor_id;sensor_type;location;lat;lon;timestamp;pressure;altitude;pressure_sealevel;temperature;humidity
8705;BME280;4389;41.932;25.904;2023-02-15T00:01:46;101839.50;;;0.18;91.14
8705;BME280;4389;41.932;25.904;2023-02-15T00:04:17;101846.56;;;0.13;91.26
8705;BME280;4389;41.932;25.904;2023-02-15T00:06:44;101846.28;;;0.25;91.17
8705;BME280;4389;41.932;25.904;2023-02-15T00:09:11;101843.34;;;0.37;90.50
8705;BME280;4389;41.932;25.904;2023-02-15T00:11:39;101848.09;;;0.55;90.49
8705;BME280;4389;41.932;25.904;2023-02-15T00:14:07;101849.50;;;0.67;90.21
8705;BME280;4389;41.932;25.904;2023-02-15T00:16:34;101851.03;;;0.75;89.96
8705;BME280;4389;41.932;25.904;2023-02-15T00:19:02;101862.78;;;0.90;90.05
8705;BME280;4389;41.932;25.904;2023-02-15T00:21:31;101861.56;;;1.01;89.70
8705;BME280;4389;41.932;25.904;2023-02-15T00:24:00;101870.72;;;1.17;89.24
8705;BME280;4389;41.932;25.904;2023-02-15T00:26:27;101867.13;;;1.20;89.10
8705;BME280;4389;41.932;25.904;2023-02-15T00:28:55;101874.28;;;1.13;89.19
8705;BME280;4389;41.932;25.904;2023-02-15T00:31:24;101876.97;;;1.10;89.18
8705;BME280;4389;41.932;25.904;2023-02-15T00:33:51;101876.09;;;1.11;89.44
8705;BME280;4389;41.932;25.904;2023-02-15T00:36:18;101878.25;;;0.96;90.08
8705;BME280;4389;41.932;25.904;2023-02-15T00:38:46;101875.47;;;1.02;90.77
8705;BME280;4389;41.932;25.904;2023-02-15T00:41:13;101874.06;;;0.90;90.55
8705;BME280;4389;41.932;25.904;2023-02-15T00:43:39;101875.50;;;1.00;90.39
8705;BME280;4389;41.932;25.904;2023-02-15T00:46:06;101869.56;;;0.95;90.51
8705;BME280;4389;41.932;25.904;2023-02-15T00:48:33;101862.81;;;0.88;90.60
8705;BME280;4389;41.932;25.904;2023-02-15T00:51:00;101861.84;;;0.92;90.66
8705;BME280;4389;41.932;25.904;2023-02-15T00:53:28;101858.84;;;0.75;91.29
8705;BME280;4389;41.932;25.904;2023-02-15T00:55:56;101854.50;;;0.74;91.10
8705;BME280;4389;41.932;25.904;2023-02-15T00:58:24;101850.66;;;0.89;91.34
8705;BME280;4389;41.932;25.904;2023-02-15T01:00:51;101838.91;;;1.05;90.83
8705;BME280;4389;41.932;25.904;2023-02-15T01:03:19;101847.91;;;0.93;90.16
8705;BME280;4389;41.932;25.904;2023-02-15T01:05:47;101847.13;;;0.91;90.35
8705;BME280;4389;41.932;25.904;2023-02-15T01:08:14;101836.72;;;0.90;90.18
8705;BME280;4389;41.932;25.904;2023-02-15T01:10:41;101844.84;;;0.79;89.97
8705;BME280;4389;41.932;25.904;2023-02-15T01:13:10;101854.03;;;0.60;91.26
8705;BME280;4389;41.932;25.904;2023-02-15T01:15:37;101849.69;;;0.61;91.34
8705;BME280;4389;41.932;25.904;2023-02-15T01:18:04;101859.84;;;0.36;92.46
8705;BME280;4389;41.932;25.904;2023-02-15T01:20:34;101859.31;;;0.24;92.94
8705;BME280;4389;41.932;25.904;2023-02-15T01:23:02;101847.97;;;0.26;93.37
8705;BME280;4389;41.932;25.904;2023-02-15T01:25:29;101847.72;;;0.37;93.48
8705;BME280;4389;41.932;25.904;2023-02-15T01:27:56;101842.00;;;0.56;93.85
8705;BME280;4389;41.932;25.904;2023-02-15T01:30:24;101851.25;;;0.66;92.93
8705;BME280;4389;41.932;25.904;2023-02-15T01:32:51;101851.19;;;0.69;92.27
8705;BME280;4389;41.932;25.904;2023-02-15T01:35:18;101853.44;;;0.81;91.98
8705;BME280;4389;41.932;25.904;2023-02-15T01:37:45;101851.59;;;0.86;91.58
8705;BME280;4389;41.932;25.904;2023-02-15T01:40:14;101843.59;;;0.92;91.17
8705;BME280;4389;41.932;25.904;2023-02-15T01:42:41;101845.91;;;1.03;90.74
8705;BME280;4389;41.932;25.904;2023-02-15T01:45:19;101842.03;;;1.17;90.62
8705;BME280;4389;41.932;25.904;2023-02-15T01:47:52;101845.78;;;1.07;89.81
8705;BME280;4389;41.932;25.904;2023-02-15T01:50:24;101838.53;;;0.88;90.48
8705;BME280;4389;41.932;25.904;2023-02-15T01:52:55;101851.41;;;0.92;91.10
8705;BME280;4389;41.932;25.904;2023-02-15T01:55:27;101849.88;;;0.85;91.06
8705;BME280;4389;41.932;25.904;2023-02-15T01:57:55;101846.00;;;0.68;90.84
8705;BME280;4389;41.932;25.904;2023-02-15T02:00:22;101850.13;;;0.76;91.29
8705;BME280;4389;41.932;25.904;2023-02-15T02:02:53;101843.28;;;0.72;91.11
8705;BME280;4389;41.932;25.904;2023-02-15T02:05:21;101844.03;;;0.77;90.50
8705;BME280;4389;41.932;25.904;2023-02-15T02:07:50;101853.31;;;0.54;90.28
8705;BME280;4389;41.932;25.904;2023-02-15T02:10:19;101855.13;;;0.52;91.19
8705;BME280;4389;41.932;25.904;2023-02-15T02:12:49;101856.94;;;0.48;91.80
8705;BME280;4389;41.932;25.904;2023-02-15T02:15:18;101856.84;;;0.53;92.09
8705;BME280;4389;41.932;25.904;2023-02-15T02:17:56;101856.19;;;0.43;91.68
8705;BME280;4389;41.932;25.904;2023-02-15T02:20:51;101859.56;;;0.48;92.26
8705;BME280;4389;41.932;25.904;2023-02-15T02:23:29;101863.06;;;0.47;91.51
8705;BME280;4389;41.932;25.904;2023-02-15T02:26:42;101861.91;;;0.57;92.55
8705;BME280;4389;41.932;25.904;2023-02-15T02:32:53;101847.31;;;0.84;92.08
8705;BME280;4389;41.932;25.904;2023-02-15T02:35:29;101854.94;;;0.91;91.65
8705;BME280;4389;41.932;25.904;2023-02-15T02:38:03;101852.88;;;1.02;91.06
8705;BME280;4389;41.932;25.904;2023-02-15T02:40:45;101846.53;;;1.12;90.51
8705;BME280;4389;41.932;25.904;2023-02-15T02:43:18;101849.03;;;1.15;90.21
8705;BME280;4389;41.932;25.904;2023-02-15T02:45:53;101851.38;;;0.94;90.90
8705;BME280;4389;41.932;25.904;2023-02-15T02:48:26;101856.63;;;0.92;91.60
8705;BME280;4389;41.932;25.904;2023-02-15T02:50:54;101848.19;;;0.84;92.21
8705;BME280;4389;41.932;25.904;2023-02-15T02:53:21;101848.25;;;0.81;92.49
8705;BME280;4389;41.932;25.904;2023-02-15T02:55:50;101856.78;;;0.86;92.71
8705;BME280;4389;41.932;25.904;2023-02-15T02:58:21;101847.19;;;0.88;93.58
8705;BME280;4389;41.932;25.904;2023-02-15T03:00:53;101858.88;;;0.74;93.32
8705;BME280;4389;41.932;25.904;2023-02-15T03:03:25;101857.09;;;0.74;93.41
8705;BME280;4389;41.932;25.904;2023-02-15T03:05:55;101858.06;;;0.72;93.83
8705;BME280;4389;41.932;25.904;2023-02-15T03:08:26;101855.41;;;0.73;94.02
8705;BME280;4389;41.932;25.904;2023-02-15T03:10:58;101856.94;;;0.80;94.27
8705;BME280;4389;41.932;25.904;2023-02-15T03:13:26;101854.94;;;0.91;94.02
8705;BME280;4389;41.932;25.904;2023-02-15T03:15:55;101870.41;;;0.97;93.47
8705;BME280;4389;41.932;25.904;2023-02-15T03:18:45;101872.78;;;1.05;93.23
8705;BME280;4389;41.932;25.904;2023-02-15T03:21:19;101877.81;;;1.11;92.81
8705;BME280;4389;41.932;25.904;2023-02-15T03:23:50;101870.13;;;1.06;92.70
8705;BME280;4389;41.932;25.904;2023-02-15T03:26:21;101874.19;;;1.16;92.69
8705;BME280;4389;41.932;25.904;2023-02-15T03:28:50;101871.53;;;1.18;91.80
8705;BME280;4389;41.932;25.904;2023-02-15T03:31:22;101871.69;;;1.13;92.02
8705;BME280;4389;41.932;25.904;2023-02-15T03:33:54;101876.28;;;1.04;92.21
8705;BME280;4389;41.932;25.904;2023-02-15T03:36:26;101871.88;;;1.06;92.15
8705;BME280;4389;41.932;25.904;2023-02-15T03:38:59;101870.56;;;1.22;92.51
8705;BME280;4389;41.932;25.904;2023-02-15T03:41:33;101881.94;;;1.19;91.83
8705;BME280;4389;41.932;25.904;2023-02-15T03:44:06;101872.88;;;1.02;91.59
8705;BME280;4389;41.932;25.904;2023-02-15T03:46:41;101872.94;;;0.99;91.47
8705;BME280;4389;41.932;25.904;2023-02-15T03:49:14;101877.31;;;0.98;90.95
8705;BME280;4389;41.932;25.904;2023-02-15T03:51:46;101873.97;;;0.93;90.99
8705;BME280;4389;41.932;25.904;2023-02-15T03:54:17;101873.28;;;0.87;91.04
8705;BME280;4389;41.932;25.904;2023-02-15T03:57:00;101888.44;;;0.71;91.35
8705;BME280;4389;41.932;25.904;2023-02-15T03:59:41;101893.78;;;0.67;90.67
8705;BME280;4389;41.932;25.904;2023-02-15T04:02:29;101891.56;;;0.52;90.91
8705;BME280;4389;41.932;25.904;2023-02-15T04:05:01;101896.91;;;0.46;91.26
8705;BME280;4389;41.932;25.904;2023-02-15T04:07:28;101894.44;;;0.41;91.81
8705;BME280;4389;41.932;25.904;2023-02-15T04:09:56;101911.25;;;0.27;92.56
8705;BME280;4389;41.932;25.904;2023-02-15T04:12:40;101911.63;;;0.12;92.92
8705;BME280;4389;41.932;25.904;2023-02-15T04:15:11;101915.09;;;0.12;92.71
8705;BME280;4389;41.932;25.904;2023-02-15T04:17:55;101922.03;;;0.10;93.45
8705;BME280;4389;41.932;25.904;2023-02-15T04:20:23;101921.38;;;0.02;94.78
8705;BME280;4389;41.932;25.904;2023-02-15T04:23:08;101926.88;;;-0.09;95.01
8705;BME280;4389;41.932;25.904;2023-02-15T04:25:52;101931.06;;;-0.04;94.97
8705;BME280;4389;41.932;25.904;2023-02-15T04:28:19;101928.44;;;-0.03;94.72
8705;BME280;4389;41.932;25.904;2023-02-15T04:30:46;101934.44;;;0.01;94.67
8705;BME280;4389;41.932;25.904;2023-02-15T04:33:13;101940.59;;;-0.05;94.13
8705;BME280;4389;41.932;25.904;2023-02-15T04:35:43;101925.00;;;-0.05;93.94
8705;BME280;4389;41.932;25.904;2023-02-15T04:38:10;101934.59;;;-0.07;93.99
8705;BME280;4389;41.932;25.904;2023-02-15T04:40:37;101942.47;;;-0.09;93.06
8705;BME280;4389;41.932;25.904;2023-02-15T04:43:03;101947.38;;;0.02;92.95
8705;BME280;4389;41.932;25.904;2023-02-15T04:45:30;101949.25;;;-0.03;92.72
8705;BME280;4389;41.932;25.904;2023-02-15T04:47:57;101956.06;;;0.01;92.88
8705;BME280;4389;41.932;25.904;2023-02-15T04:50:24;101958.63;;;0.04;92.50
8705;BME280;4389;41.932;25.904;2023-02-15T04:52:52;101957.84;;;-0.01;92.62
8705;BME280;4389;41.932;25.904;2023-02-15T04:55:19;101964.78;;;0.00;93.05
8705;BME280;4389;41.932;25.904;2023-02-15T04:57:46;101969.19;;;-0.05;92.13
8705;BME280;4389;41.932;25.904;2023-02-15T05:00:13;101965.03;;;-0.12;92.55
8705;BME280;4389;41.932;25.904;2023-02-15T05:02:40;101966.88;;;-0.16;92.83
8705;BME280;4389;41.932;25.904;2023-02-15T05:05:07;101974.63;;;-0.15;92.57
8705;BME280;4389;41.932;25.904;2023-02-15T05:07:34;101974.59;;;-0.13;92.91
8705;BME280;4389;41.932;25.904;2023-02-15T05:10:03;101987.50;;;-0.08;92.20
8705;BME280;4389;41.932;25.904;2023-02-15T05:12:30;101988.31;;;-0.06;91.86
8705;BME280;4389;41.932;25.904;2023-02-15T05:14:57;101991.66;;;-0.01;91.77
8705;BME280;4389;41.932;25.904;2023-02-15T05:17:24;101990.84;;;-0.03;91.56
8705;BME280;4389;41.932;25.904;2023-02-15T05:19:51;101999.41;;;-0.38;92.34
8705;BME280;4389;41.932;25.904;2023-02-15T05:22:18;102010.16;;;-0.58;93.61
8705;BME280;4389;41.932;25.904;2023-02-15T05:24:44;102019.88;;;-0.67;95.28
8705;BME280;4389;41.932;25.904;2023-02-15T05:27:30;102029.16;;;-0.54;94.98
8705;BME280;4389;41.932;25.904;2023-02-15T05:30:14;102040.06;;;-0.81;95.57
8705;BME280;4389;41.932;25.904;2023-02-15T05:32:41;102030.22;;;-0.64;95.48
8705;BME280;4389;41.932;25.904;2023-02-15T05:35:11;102042.38;;;-0.66;95.62
8705;BME280;4389;41.932;25.904;2023-02-15T05:37:39;102044.94;;;-0.65;95.23
8705;BME280;4389;41.932;25.904;2023-02-15T05:40:07;102046.78;;;-0.71;95.70
8705;BME280;4389;41.932;25.904;2023-02-15T05:42:35;102059.72;;;-0.68;95.32
8705;BME280;4389;41.932;25.904;2023-02-15T05:45:02;102062.81;;;-0.48;95.65
8705;BME280;4389;41.932;25.904;2023-02-15T05:47:29;102055.41;;;-0.22;95.06
8705;BME280;4389;41.932;25.904;2023-02-15T05:49:56;102048.31;;;-0.14;94.93
8705;BME280;4389;41.932;25.904;2023-02-15T05:52:22;102059.06;;;0.10;94.86
8705;BME280;4389;41.932;25.904;2023-02-15T05:54:49;102055.69;;;0.05;94.49
8705;BME280;4389;41.932;25.904;2023-02-15T05:57:16;102064.25;;;0.11;93.22
8705;BME280;4389;41.932;25.904;2023-02-15T05:59:44;102063.75;;;0.34;92.73
8705;BME280;4389;41.932;25.904;2023-02-15T06:02:11;102064.38;;;0.45;92.33
8705;BME280;4389;41.932;25.904;2023-02-15T06:04:38;102071.94;;;0.57;91.71
8705;BME280;4389;41.932;25.904;2023-02-15T06:07:05;102077.84;;;0.63;91.64
8705;BME280;4389;41.932;25.904;2023-02-15T06:09:32;102077.72;;;0.69;91.35
8705;BME280;4389;41.932;25.904;2023-02-15T06:11:58;102080.38;;;0.66;91.47
8705;BME280;4389;41.932;25.904;2023-02-15T06:14:25;102085.56;;;0.66;90.52
8705;BME280;4389;41.932;25.904;2023-02-15T06:16:53;102086.81;;;0.50;90.97
8705;BME280;4389;41.932;25.904;2023-02-15T06:19:20;102086.06;;;0.83;91.13
8705;BME280;4389;41.932;25.904;2023-02-15T06:21:48;102086.34;;;1.08;90.80
8705;BME280;4389;41.932;25.904;2023-02-15T06:24:15;102086.75;;;1.26;90.14
8705;BME280;4389;41.932;25.904;2023-02-15T06:26:41;102093.28;;;1.07;89.42
8705;BME280;4389;41.932;25.904;2023-02-15T06:29:08;102081.53;;;1.26;89.85
8705;BME280;4389;41.932;25.904;2023-02-15T06:31:35;102076.03;;;1.70;89.66
8705;BME280;4389;41.932;25.904;2023-02-15T06:34:03;102075.22;;;1.99;88.46
8705;BME280;4389;41.932;25.904;2023-02-15T06:36:31;102081.25;;;2.31;87.71
8705;BME280;4389;41.932;25.904;2023-02-15T06:38:58;102078.19;;;2.46;87.30
8705;BME280;4389;41.932;25.904;2023-02-15T06:41:25;102084.72;;;2.59;87.01
8705;BME280;4389;41.932;25.904;2023-02-15T06:43:51;102084.06;;;2.80;86.03
8705;BME280;4389;41.932;25.904;2023-02-15T06:46:19;102082.97;;;2.87;85.99
8705;BME280;4389;41.932;25.904;2023-02-15T06:48:46;102083.63;;;3.21;85.29
8705;BME280;4389;41.932;25.904;2023-02-15T06:51:14;102084.72;;;3.40;84.94
8705;BME280;4389;41.932;25.904;2023-02-15T06:53:41;102087.75;;;3.28;84.91
8705;BME280;4389;41.932;25.904;2023-02-15T06:56:09;102085.47;;;3.44;85.15
8705;BME280;4389;41.932;25.904;2023-02-15T06:58:36;102082.44;;;3.31;85.58
8705;BME280;4389;41.932;25.904;2023-02-15T07:01:04;102081.47;;;3.58;85.54
8705;BME280;4389;41.932;25.904;2023-02-15T07:03:32;102074.75;;;4.00;85.02
8705;BME280;4389;41.932;25.904;2023-02-15T07:06:00;102078.44;;;4.18;84.67
8705;BME280;4389;41.932;25.904;2023-02-15T07:08:28;102082.00;;;3.92;83.64
8705;BME280;4389;41.932;25.904;2023-02-15T07:10:56;102089.50;;;3.78;85.23
8705;BME280;4389;41.932;25.904;2023-02-15T07:13:44;102089.63;;;3.75;85.36
8705;BME280;4389;41.932;25.904;2023-02-15T07:16:10;102086.66;;;3.84;85.42
8705;BME280;4389;41.932;25.904;2023-02-15T07:18:37;102093.19;;;3.97;84.39
8705;BME280;4389;41.932;25.904;2023-02-15T07:21:05;102086.69;;;4.07;83.73
8705;BME280;4389;41.932;25.904;2023-02-15T07:23:35;102089.78;;;4.18;84.21
8705;BME280;4389;41.932;25.904;2023-02-15T07:26:02;102093.16;;;4.44;83.53
8705;BME280;4389;41.932;25.904;2023-02-15T07:28:29;102094.25;;;4.39;83.17
8705;BME280;4389;41.932;25.904;2023-02-15T07:30:56;102083.59;;;4.65;83.15
8705;BME280;4389;41.932;25.904;2023-02-15T07:33:23;102098.94;;;4.97;82.46
8705;BME280;4389;41.932;25.904;2023-02-15T07:35:53;102102.56;;;5.16;80.76
8705;BME280;4389;41.932;25.904;2023-02-15T07:38:21;102102.34;;;4.99;79.71
8705;BME280;4389;41.932;25.904;2023-02-15T07:40:49;102097.34;;;4.93;80.38
8705;BME280;4389;41.932;25.904;2023-02-15T07:43:16;102087.97;;;5.09;80.61
8705;BME280;4389;41.932;25.904;2023-02-15T07:45:43;102097.22;;;5.39;80.54
8705;BME280;4389;41.932;25.904;2023-02-15T07:48:10;102091.97;;;5.79;78.64
8705;BME280;4389;41.932;25.904;2023-02-15T07:50:37;102085.78;;;6.20;76.87
8705;BME280;4389;41.932;25.904;2023-02-15T07:53:04;102089.66;;;6.50;75.71
8705;BME280;4389;41.932;25.904;2023-02-15T07:55:31;102092.09;;;6.73;75.89
8705;BME280;4389;41.932;25.904;2023-02-15T07:57:59;102102.53;;;6.56;74.73
8705;BME280;4389;41.932;25.904;2023-02-15T08:00:26;102092.00;;;6.56;74.81
8705;BME280;4389;41.932;25.904;2023-02-15T08:02:55;102090.25;;;6.38;76.51
8705;BME280;4389;41.932;25.904;2023-02-15T08:05:41;102090.13;;;6.21;75.87
8705;BME280;4389;41.932;25.904;2023-02-15T08:08:09;102089.72;;;6.30;76.71
8705;BME280;4389;41.932;25.904;2023-02-15T08:10:57;102087.34;;;6.44;75.83
8705;BME280;4389;41.932;25.904;2023-02-15T08:13:43;102080.91;;;6.86;74.56
8705;BME280;4389;41.932;25.904;2023-02-15T08:16:21;102083.63;;;7.20;73.48
8705;BME280;4389;41.932;25.904;2023-02-15T08:18:48;102080.00;;;7.40;72.63
8705;BME280;4389;41.932;25.904;2023-02-15T08:21:14;102081.09;;;7.53;71.61
8705;BME280;4389;41.932;25.904;2023-02-15T08:23:41;102081.72;;;7.58;71.15
8705;BME280;4389;41.932;25.904;2023-02-15T08:26:08;102082.34;;;7.80;71.34
8705;BME280;4389;41.932;25.904;2023-02-15T08:28:35;102080.41;;;8.16;70.05
8705;BME280;4389;41.932;25.904;2023-02-15T08:31:07;102077.91;;;8.13;70.14
8705;BME280;4389;41.932;25.904;2023-02-15T08:33:35;102077.97;;;7.96;70.32
8705;BME280;4389;41.932;25.904;2023-02-15T08:36:03;102073.97;;;7.72;70.87
8705;BME280;4389;41.932;25.904;2023-02-15T08:38:31;102068.06;;;7.84;71.20
8705;BME280;4389;41.932;25.904;2023-02-15T08:41:08;102068.19;;;7.98;70.68
8705;BME280;4389;41.932;25.904;2023-02-15T08:43:36;102073.00;;;8.07;69.90
8705;BME280;4389;41.932;25.904;2023-02-15T08:46:03;102074.88;;;7.88;69.48
8705;BME280;4389;41.932;25.904;2023-02-15T08:48:31;102078.47;;;7.53;71.41
8705;BME280;4389;41.932;25.904;2023-02-15T08:50:58;102075.31;;;7.11;72.50
8705;BME280;4389;41.932;25.904;2023-02-15T08:53:25;102077.94;;;6.94;73.70
8705;BME280;4389;41.932;25.904;2023-02-15T08:55:55;102080.34;;;6.80;73.40
8705;BME280;4389;41.932;25.904;2023-02-15T08:58:23;102074.88;;;6.84;73.41
8705;BME280;4389;41.932;25.904;2023-02-15T09:00:50;102070.09;;;6.92;73.97
8705;BME280;4389;41.932;25.904;2023-02-15T09:03:17;102071.22;;;7.05;71.34
8705;BME280;4389;41.932;25.904;2023-02-15T09:05:45;102066.78;;;7.06;70.53
8705;BME280;4389;41.932;25.904;2023-02-15T09:08:12;102061.09;;;7.15;68.82
8705;BME280;4389;41.932;25.904;2023-02-15T09:10:39;102065.31;;;7.36;67.71
8705;BME280;4389;41.932;25.904;2023-02-15T09:13:05;102064.34;;;7.54;65.83
8705;BME280;4389;41.932;25.904;2023-02-15T09:15:32;102063.56;;;7.69;63.51
8705;BME280;4389;41.932;25.904;2023-02-15T09:17:59;102051.78;;;7.93;64.00
8705;BME280;4389;41.932;25.904;2023-02-15T09:20:31;102058.94;;;8.06;63.99
8705;BME280;4389;41.932;25.904;2023-02-15T09:22:59;102049.59;;;7.84;61.86
8705;BME280;4389;41.932;25.904;2023-02-15T09:25:26;102050.34;;;8.03;61.88
8705;BME280;4389;41.932;25.904;2023-02-15T09:27:53;102047.22;;;8.12;60.44
8705;BME280;4389;41.932;25.904;2023-02-15T09:30:20;102041.38;;;7.90;61.16
8705;BME280;4389;41.932;25.904;2023-02-15T09:32:47;102044.31;;;8.01;60.98
8705;BME280;4389;41.932;25.904;2023-02-15T09:35:14;102051.41;;;8.16;59.95
8705;BME280;4389;41.932;25.904;2023-02-15T09:37:41;102048.25;;;8.26;59.74
8705;BME280;4389;41.932;25.904;2023-02-15T09:40:12;102046.22;;;8.14;59.41
8705;BME280;4389;41.932;25.904;2023-02-15T09:43:06;102047.13;;;8.30;59.52
8705;BME280;4389;41.932;25.904;2023-02-15T09:46:14;102044.22;;;8.35;59.03
8705;BME280;4389;41.932;25.904;2023-02-15T09:48:48;102040.34;;;8.57;58.94
8705;BME280;4389;41.932;25.904;2023-02-15T09:51:35;102043.84;;;8.58;57.90
8705;BME280;4389;41.932;25.904;2023-02-15T09:54:16;102047.66;;;8.68;58.04
8705;BME280;4389;41.932;25.904;2023-02-15T09:56:54;102045.59;;;9.03;57.40
8705;BME280;4389;41.932;25.904;2023-02-15T09:59:31;102051.81;;;9.02;56.30
8705;BME280;4389;41.932;25.904;2023-02-15T10:02:15;102036.72;;;9.04;56.24
8705;BME280;4389;41.932;25.904;2023-02-15T10:05:00;102042.13;;;8.72;56.21
8705;BME280;4389;41.932;25.904;2023-02-15T10:07:49;102040.69;;;8.67;57.58
8705;BME280;4389;41.932;25.904;2023-02-15T10:10:25;102028.94;;;8.88;56.97
8705;BME280;4389;41.932;25.904;2023-02-15T10:13:12;102020.88;;;9.04;55.82
8705;BME280;4389;41.932;25.904;2023-02-15T10:15:53;102013.63;;;9.08;56.78
8705;BME280;4389;41.932;25.904;2023-02-15T10:18:34;102017.41;;;9.04;55.76
8705;BME280;4389;41.932;25.904;2023-02-15T10:21:09;102029.41;;;8.94;56.06
8705;BME280;4389;41.932;25.904;2023-02-15T10:24:04;102006.84;;;9.04;55.54
8705;BME280;4389;41.932;25.904;2023-02-15T10:26:43;102008.56;;;9.05;55.43
8705;BME280;4389;41.932;25.904;2023-02-15T10:29:21;102009.56;;;9.02;55.68
8705;BME280;4389;41.932;25.904;2023-02-15T10:31:59;102000.56;;;9.06;56.03
8705;BME280;4389;41.932;25.904;2023-02-15T10:34:36;101999.28;;;8.98;56.01
8705;BME280;4389;41.932;25.904;2023-02-15T10:37:34;101997.53;;;9.12;55.31
8705;BME280;4389;41.932;25.904;2023-02-15T10:40:10;101992.63;;;9.06;55.57
8705;BME280;4389;41.932;25.904;2023-02-15T10:42:47;101980.63;;;9.30;56.45
8705;BME280;4389;41.932;25.904;2023-02-15T10:45:23;101978.00;;;9.44;56.03
8705;BME280;4389;41.932;25.904;2023-02-15T10:48:15;101977.34;;;9.41;55.17
8705;BME280;4389;41.932;25.904;2023-02-15T10:50:48;101969.09;;;9.31;54.77
8705;BME280;4389;41.932;25.904;2023-02-15T10:53:37;101968.00;;;9.35;55.42
8705;BME280;4389;41.932;25.904;2023-02-15T10:56:12;101963.63;;;9.20;55.25
8705;BME280;4389;41.932;25.904;2023-02-15T10:58:56;101955.19;;;9.43;55.33
8705;BME280;4389;41.932;25.904;2023-02-15T11:01:32;101968.19;;;9.46;55.46
8705;BME280;4389;41.932;25.904;2023-02-15T11:04:30;101967.53;;;9.43;54.96
8705;BME280;4389;41.932;25.904;2023-02-15T11:07:04;101960.47;;;9.57;55.86
8705;BME280;4389;41.932;25.904;2023-02-15T11:09:38;101957.84;;;9.57;55.08
8705;BME280;4389;41.932;25.904;2023-02-15T11:12:11;101960.47;;;9.57;55.23
8705;BME280;4389;41.932;25.904;2023-02-15T11:14:44;101951.59;;;9.72;54.83
8705;BME280;4389;41.932;25.904;2023-02-15T11:17:17;101947.44;;;9.82;54.12
8705;BME280;4389;41.932;25.904;2023-02-15T11:19:51;101955.00;;;9.74;52.74
8705;BME280;4389;41.932;25.904;2023-02-15T11:22:21;101967.38;;;9.60;53.22
8705;BME280;4389;41.932;25.904;2023-02-15T11:24:49;101953.28;;;9.45;54.34
8705;BME280;4389;41.932;25.904;2023-02-15T11:27:19;101958.19;;;9.37;54.23
8705;BME280;4389;41.932;25.904;2023-02-15T11:29:53;101955.34;;;9.40;55.08
8705;BME280;4389;41.932;25.904;2023-02-15T11:32:25;101945.94;;;9.50;53.50
8705;BME280;4389;41.932;25.904;2023-02-15T11:34:56;101946.31;;;9.58;53.57
8705;BME280;4389;41.932;25.904;2023-02-15T11:37:28;101940.84;;;9.75;54.02
8705;BME280;4389;41.932;25.904;2023-02-15T11:39:57;101935.25;;;9.94;55.17
8705;BME280;4389;41.932;25.904;2023-02-15T11:42:27;101935.75;;;10.00;52.58
8705;BME280;4389;41.932;25.904;2023-02-15T11:45:00;101936.31;;;9.91;52.05
8705;BME280;4389;41.932;25.904;2023-02-15T11:47:30;101932.91;;;9.89;51.90
8705;BME280;4389;41.932;25.904;2023-02-15T11:49:57;101936.97;;;9.95;52.66
8705;BME280;4389;41.932;25.904;2023-02-15T11:52:24;101929.88;;;9.95;51.01
8705;BME280;4389;41.932;25.904;2023-02-15T11:54:52;101931.94;;;9.90;50.97
8705;BME280;4389;41.932;25.904;2023-02-15T11:57:25;101929.72;;;9.84;51.21
8705;BME280;4389;41.932;25.904;2023-02-15T11:59:59;101936.88;;;9.82;51.16
8705;BME280;4389;41.932;25.904;2023-02-15T12:02:32;101914.22;;;9.78;51.93
8705;BME280;4389;41.932;25.904;2023-02-15T12:05:02;101918.19;;;9.99;51.04
8705;BME280;4389;41.932;25.904;2023-02-15T12:07:32;101915.94;;;10.07;51.19
8705;BME280;4389;41.932;25.904;2023-02-15T12:10:04;101919.59;;;10.19;50.96
8705;BME280;4389;41.932;25.904;2023-02-15T12:12:37;101905.66;;;10.03;51.02
8705;BME280;4389;41.932;25.904;2023-02-15T12:15:05;101906.44;;;10.17;50.97
8705;BME280;4389;41.932;25.904;2023-02-15T12:17:38;101901.69;;;10.36;50.39
8705;BME280;4389;41.932;25.904;2023-02-15T12:20:21;101898.69;;;10.28;50.13
8705;BME280;4389;41.932;25.904;2023-02-15T12:22:50;101899.31;;;10.05;50.57
8705;BME280;4389;41.932;25.904;2023-02-15T12:25:22;101889.84;;;10.01;51.51
8705;BME280;4389;41.932;25.904;2023-02-15T12:27:49;101887.78;;;10.06;51.49
8705;BME280;4389;41.932;25.904;2023-02-15T12:30:21;101891.50;;;10.30;52.59
8705;BME280;4389;41.932;25.904;2023-02-15T12:32:53;101880.88;;;10.18;50.36
8705;BME280;4389;41.932;25.904;2023-02-15T12:35:27;101874.63;;;10.45;53.88
8705;BME280;4389;41.932;25.904;2023-02-15T12:37:57;101888.00;;;10.56;50.89
8705;BME280;4389;41.932;25.904;2023-02-15T12:40:26;101880.38;;;10.52;50.53
8705;BME280;4389;41.932;25.904;2023-02-15T12:42:54;101876.13;;;10.49;49.80
8705;BME280;4389;41.932;25.904;2023-02-15T12:45:24;101880.31;;;10.66;50.35
8705;BME280;4389;41.932;25.904;2023-02-15T12:48:15;101876.00;;;10.77;48.93
8705;BME280;4389;41.932;25.904;2023-02-15T12:50:43;101886.16;;;10.83;51.17
8705;BME280;4389;41.932;25.904;2023-02-15T12:53:14;101881.53;;;10.87;49.21
8705;BME280;4389;41.932;25.904;2023-02-15T12:55:50;101877.28;;;10.84;48.97
8705;BME280;4389;41.932;25.904;2023-02-15T12:58:19;101877.06;;;10.87;48.26
8705;BME280;4389;41.932;25.904;2023-02-15T13:00:48;101876.00;;;10.77;48.99
8705;BME280;4389;41.932;25.904;2023-02-15T13:03:29;101878.50;;;10.66;49.48
8705;BME280;4389;41.932;25.904;2023-02-15T13:05:57;101871.22;;;10.82;49.71
8705;BME280;4389;41.932;25.904;2023-02-15T13:08:28;101863.50;;;10.92;49.24
8705;BME280;4389;41.932;25.904;2023-02-15T13:10:59;101866.50;;;11.12;48.90
8705;BME280;4389;41.932;25.904;2023-02-15T13:13:29;101857.56;;;11.01;50.92
8705;BME280;4389;41.932;25.904;2023-02-15T13:15:59;101860.22;;;10.88;49.59
8705;BME280;4389;41.932;25.904;2023-02-15T13:18:34;101865.00;;;10.83;49.16
8705;BME280;4389;41.932;25.904;2023-02-15T13:21:09;101866.59;;;10.98;48.52
8705;BME280;4389;41.932;25.904;2023-02-15T13:23:38;101870.47;;;10.93;49.23
8705;BME280;4389;41.932;25.904;2023-02-15T13:26:10;101875.38;;;10.99;48.32
8705;BME280;4389;41.932;25.904;2023-02-15T13:28:44;101875.06;;;11.03;49.15
8705;BME280;4389;41.932;25.904;2023-02-15T13:31:15;101871.81;;;11.12;47.43
8705;BME280;4389;41.932;25.904;2023-02-15T13:33:46;101874.13;;;11.29;47.65